CheckWX is a tool to help pilots better visualize weather data.  It is not intended as a substitute for an official pre-flight weather briefing.

06:03:30 UTC

FAOB METAR
Overberg Airport
Overberg, South Africa
Current

1 hour ago

FAOB 200500Z AUTO 32005KT //// // ////// 21/18 Q1012
Observed
Feb-20 @ 05:00 UTC
Wind
  • 320° at 5 KTS
Visibility
Temperature
21°C / 70°F
Dewpoint
18°C / 64°F
Humidity
83%
Altimeter
29.88" Hg
Pressure
1011.92 hPa
Previous

2 hours ago

FAOB 200400Z AUTO 32005KT //// // ////// 21/19 Q1011
Observed
Feb-20 @ 04:00 UTC
Wind
  • 320° at 5 KTS
Visibility
Temperature
21°C / 70°F
Dewpoint
19°C / 66°F
Humidity
88%
Altimeter
29.85" Hg
Pressure
1010.92 hPa
Previous

3 hours ago

FAOB 200300Z AUTO 32006KT //// // ////// 21/19 Q1010
Observed
Feb-20 @ 03:00 UTC
Wind
  • 320° at 6 KTS
Visibility
Temperature
21°C / 70°F
Dewpoint
19°C / 66°F
Humidity
88%
Altimeter
29.82" Hg
Pressure
1009.92 hPa